Decoded Metar for VVTS (HO CHI MINH CITY in VIET NAM) (IATA:SGN) | Meteo·Mobile Aviation Weather
aviador You're here:

VVTS Decoded Metar

HO CHI MINH CITY in VIET NAM
Report Time2019-10-22 13:30:00
UTC Time2019-10-22 13:45:53
Flight Rules vfr VFR
Wind130° at 05 kt
W.Decomp.*RWY 07: 2.5 kt HW 4.3 kt RCW
Visibility9999 m
Phenomena:N/A
Clouds:Scattered 017 Hf
Expected CloudBase > 2,000 ft AGL from Temp-Dew spread
CeilingNone
Temp29°C (ISA +14)
Dew Point24°C (74% RH)
Heat Index33.5°C
QNH1009 hPa
Density Alt2,211 ft
Elevation62 ft
Report Wrong Elevation
Raw Report
VVTS 221330Z 13005KT 9999 SCT017 29/24 Q1009 NOSIG=

Extra information for VVTS:More info

Metar Taf Metar & Taf Last 4 Metars F.Rules Stats Wind Profile Meteogram Temp Stats Airport Information Weather charts Add Link Nearby VenuesMetar ALERT Operation Metar Decoded Social comments